Time;durP1;ratioP1;P1;durP2;ratioP2;P2;SDS_P1;SDS_P2;PMS_P1;PMS_P2;Temp;Humidity;BMP_temperature;BMP_pressure;BME280_temperature;BME280_humidity;BME280_pressure;Samples;Min_cycle;Max_cycle;Signal;HPM_P1;HPM_P2
2021/06/12 00:02:11;;;;;;;32.92;25.33;;;18.70;99.90;;;;;;5077090;28;20047;-56
2021/06/12 00:04:48;;;;;;;35.17;25.73;;;18.60;99.90;;;;;;5091624;28;20048;-56
2021/06/12 00:07:25;;;;;;;38.42;25.58;;;18.60;99.90;;;;;;5091738;28;20497;-56
2021/06/12 00:10:05;;;;;;;38.63;27.45;;;18.60;99.90;;;;;;5075348;28;20040;-56
2021/06/12 00:12:52;;;;;;;35.20;25.63;;;18.60;99.90;;;;;;5091754;28;20532;-56
2021/06/12 00:15:27;;;;;;;34.53;25.90;;;18.60;99.90;;;;;;5095529;28;20056;-56
2021/06/12 00:18:13;;;;;;;35.10;26.00;;;18.50;99.90;;;;;;5080621;28;20048;-57
2021/06/12 00:20:52;;;;;;;37.67;26.52;;;18.50;99.90;;;;;;5095694;28;20054;-56
2021/06/12 00:23:37;;;;;;;37.90;26.52;;;18.50;99.90;;;;;;5080652;28;20055;-56
2021/06/12 00:26:03;;;;;;;34.75;26.60;;;18.50;99.90;;;;;;5095731;28;20040;-56
2021/06/12 00:28:40;;;;;;;37.67;25.83;;;18.50;99.90;;;;;;5095596;28;20044;-56
2021/06/12 00:31:10;;;;;;;34.65;26.17;;;18.60;99.90;;;;;;5095195;28;20040;-56
2021/06/12 00:33:36;;;;;;;37.78;27.13;;;18.60;99.90;;;;;;5095157;28;20497;-56
2021/06/12 00:36:03;;;;;;;37.30;26.80;;;18.50;99.90;;;;;;5095455;28;20036;-56
2021/06/12 00:38:43;;;;;;;35.67;26.88;;;18.50;99.90;;;;;;5095179;28;20116;-56
2021/06/12 00:41:09;;;;;;;39.05;27.67;;;18.60;99.90;;;;;;5094971;28;20047;-55
2021/06/12 00:43:39;;;;;;;39.80;27.00;;;18.50;99.90;;;;;;5094901;28;20050;-56
2021/06/12 00:46:06;;;;;;;39.88;27.40;;;18.50;99.90;;;;;;5095099;28;20181;-56
2021/06/12 00:48:35;;;;;;;35.50;27.42;;;18.50;99.90;;;;;;5094820;28;20040;-56
2021/06/12 00:51:01;;;;;;;39.05;27.80;;;18.50;99.90;;;;;;5095379;28;20075;-56
2021/06/12 00:53:37;;;;;;;37.05;26.40;;;18.60;99.90;;;;;;5095220;28;20115;-56
2021/06/12 00:56:06;;;;;;;37.95;27.65;;;18.50;99.90;;;;;;5095320;28;20072;-56
2021/06/12 00:58:41;;;;;;;36.88;27.30;;;18.50;99.90;;;;;;5095033;28;20067;-56
2021/06/12 01:01:14;;;;;;;37.53;26.52;;;18.50;99.90;;;;;;5094829;28;20044;-56
2021/06/12 01:03:40;;;;;;;38.58;27.35;;;18.50;99.90;;;;;;5094963;28;20059;-56
2021/06/12 01:06:10;;;;;;;43.13;28.33;;;18.50;99.90;;;;;;5094936;28;20044;-56
2021/06/12 01:08:43;;;;;;;38.30;27.15;;;18.40;99.90;;;;;;5094847;28;20398;-56
2021/06/12 01:11:25;;;;;;;35.78;27.10;;;18.50;99.90;;;;;;5094745;28;20470;-55
2021/06/12 01:14:04;;;;;;;34.17;26.95;;;18.40;99.90;;;;;;5094475;28;20174;-56
2021/06/12 01:17:27;;;;;;;37.83;29.00;;;18.40;99.90;;;;;;5079552;28;20123;-56
2021/06/12 01:20:30;;;;;;;35.67;28.05;;;18.40;99.90;;;;;;5094583;28;20067;-57
2021/06/12 01:23:50;;;;;;;38.63;29.13;;;18.40;99.90;;;;;;5079820;28;20051;-56
2021/06/12 01:27:09;;;;;;;37.15;28.17;;;18.40;99.90;;;;;;5079297;28;20044;-56
2021/06/12 01:30:20;;;;;;;36.85;26.88;;;18.30;99.90;;;;;;5079534;28;20044;-56
2021/06/12 01:33:08;;;;;;;37.75;27.70;;;18.40;99.90;;;;;;5079290;28;20097;-56
2021/06/12 01:36:04;;;;;;;43.65;28.50;;;18.30;99.90;;;;;;5079314;28;20105;-56
2021/06/12 01:38:52;;;;;;;39.70;29.38;;;18.30;99.90;;;;;;5079240;28;20048;-56
2021/06/12 01:41:40;;;;;;;45.75;31.65;;;18.20;99.90;;;;;;5079287;28;20073;-56
2021/06/12 01:44:29;;;;;;;38.72;29.10;;;18.20;99.90;;;;;;5079058;28;20055;-56
2021/06/12 01:47:15;;;;;;;38.42;29.30;;;18.20;99.90;;;;;;5079341;28;20055;-56
2021/06/12 01:50:07;;;;;;;38.95;29.35;;;18.20;99.90;;;;;;5079275;28;20048;-56
2021/06/12 01:52:42;;;;;;;36.65;27.80;;;18.10;99.90;;;;;;5093687;28;20097;-55
2021/06/12 01:55:32;;;;;;;39.08;27.77;;;18.20;99.90;;;;;;5079137;28;20044;-56
2021/06/12 01:58:21;;;;;;;34.45;27.75;;;18.20;99.90;;;;;;5079030;28;20048;-56
2021/06/12 02:01:10;;;;;;;36.10;26.42;;;18.10;99.90;;;;;;5078612;28;20169;-56
2021/06/12 02:03:57;;;;;;;36.75;27.98;;;18.20;99.90;;;;;;5078545;28;20099;-56
2021/06/12 02:06:45;;;;;;;35.83;26.70;;;18.10;99.90;;;;;;5078829;28;20079;-56
2021/06/12 02:09:32;;;;;;;38.15;28.90;;;18.10;99.90;;;;;;5078480;28;20393;-56
2021/06/12 02:12:19;;;;;;;35.80;26.95;;;18.00;99.90;;;;;;5078773;28;20083;-55
2021/06/12 02:15:08;;;;;;;37.35;27.52;;;18.00;99.90;;;;;;5078455;28;20067;-55
2021/06/12 02:17:56;;;;;;;36.45;28.30;;;18.00;99.90;;;;;;5078325;28;20387;-56
2021/06/12 02:20:43;;;;;;;36.05;27.27;;;18.00;99.90;;;;;;5078440;28;20478;-56
2021/06/12 02:23:30;;;;;;;35.53;26.52;;;18.00;99.90;;;;;;5078265;28;20052;-56
2021/06/12 02:26:18;;;;;;;35.22;27.95;;;18.00;99.90;;;;;;5078081;28;20044;-55
2021/06/12 02:29:05;;;;;;;38.72;28.17;;;17.90;99.90;;;;;;5078176;28;20423;-56
2021/06/12 02:31:57;;;;;;;34.50;26.50;;;17.90;99.90;;;;;;5078180;28;20044;-57
2021/06/12 02:34:43;;;;;;;33.30;27.00;;;17.90;99.90;;;;;;5078404;28;20052;-56
2021/06/12 02:37:30;;;;;;;38.75;28.10;;;17.90;99.90;;;;;;5078096;28;20395;-57
2021/06/12 02:40:16;;;;;;;36.50;28.30;;;17.90;99.90;;;;;;5092444;28;20137;-56
2021/06/12 02:43:02;;;;;;;38.70;27.00;;;17.90;99.90;;;;;;5092327;28;20048;-56
2021/06/12 02:45:49;;;;;;;35.78;29.17;;;17.90;99.90;;;;;;5091910;28;20047;-56
2021/06/12 02:48:37;;;;;;;36.63;28.42;;;17.90;99.90;;;;;;5092086;28;20113;-56
2021/06/12 02:51:24;;;;;;;39.25;29.52;;;17.90;99.90;;;;;;5077685;28;20075;-56
2021/06/12 02:54:10;;;;;;;36.38;27.23;;;17.90;99.90;;;;;;5092070;28;20423;-56
2021/06/12 02:56:57;;;;;;;37.90;29.23;;;17.90;99.90;;;;;;5077681;28;20146;-57
2021/06/12 02:59:44;;;;;;;40.35;28.27;;;17.90;99.90;;;;;;5091811;28;20113;-56
2021/06/12 03:02:34;;;;;;;38.50;29.15;;;17.80;99.90;;;;;;5092028;28;20393;-56
2021/06/12 03:05:23;;;;;;;42.13;30.08;;;17.80;99.90;;;;;;5091573;28;20040;-56
2021/06/12 03:08:12;;;;;;;36.70;28.55;;;17.90;99.90;;;;;;5091829;28;20047;-56
2021/06/12 03:10:38;;;;;;;41.95;29.80;;;17.80;99.90;;;;;;5074838;28;20043;-56
2021/06/12 03:13:27;;;;;;;40.70;29.15;;;17.80;99.90;;;;;;5077720;28;20127;-57
2021/06/12 03:16:17;;;;;;;39.45;29.50;;;17.80;99.90;;;;;;5077377;28;20078;-56
2021/06/12 03:19:00;;;;;;;40.08;29.52;;;17.80;99.90;;;;;;5092606;28;20051;-56
2021/06/12 03:21:49;;;;;;;40.78;29.65;;;17.70;99.90;;;;;;5077547;28;20055;-56
2021/06/12 03:24:36;;;;;;;44.92;29.60;;;17.80;99.90;;;;;;5063494;28;20109;-56
2021/06/12 03:27:22;;;;;;;38.35;29.77;;;17.80;99.90;;;;;;5077481;28;20244;-56
2021/06/12 03:29:55;;;;;;;46.25;29.02;;;17.80;99.90;;;;;;5092248;28;20048;-55
2021/06/12 03:32:21;;;;;;;43.88;29.88;;;17.80;99.90;;;;;;5092220;28;20047;-57
2021/06/12 03:34:48;;;;;;;41.30;29.70;;;17.80;99.90;;;;;;5092092;28;20466;-56
2021/06/12 03:37:29;;;;;;;41.75;28.92;;;17.80;99.90;;;;;;5092116;28;20496;-56
2021/06/12 03:39:56;;;;;;;37.95;27.67;;;17.90;99.90;;;;;;5092226;28;20056;-56
2021/06/12 03:42:45;;;;;;;38.10;27.10;;;17.90;99.90;;;;;;5077586;28;20105;-56
2021/06/12 03:45:31;;;;;;;42.85;29.13;;;17.90;99.90;;;;;;5076980;28;20087;-55
2021/06/12 03:48:01;;;;;;;37.47;27.33;;;17.80;99.90;;;;;;5094860;28;20040;-56
2021/06/12 03:50:42;;;;;;;42.70;29.55;;;17.80;99.90;;;;;;5098579;28;20059;-56
2021/06/12 03:53:30;;;;;;;42.83;27.85;;;17.70;99.90;;;;;;5083853;28;20362;-56
2021/06/12 03:56:31;;;;;;;35.83;25.38;;;17.80;99.90;;;;;;5097700;28;20055;-56
2021/06/12 03:59:17;;;;;;;;;;;17.90;99.90;;;;;;5084297;28;20048;-55
2021/06/12 04:02:03;;;;;;;34.05;24.58;;;17.80;99.90;;;;;;5083939;28;19915;-56
2021/06/12 04:04:49;;;;;;;33.97;24.95;;;17.80;99.90;;;;;;5083811;28;20040;-56
2021/06/12 04:07:37;;;;;;;37.80;24.88;;;17.80;99.90;;;;;;5083751;28;20084;-56
2021/06/12 04:10:23;;;;;;;36.55;23.88;;;17.80;99.90;;;;;;5083486;28;20048;-56
2021/06/12 04:12:49;;;;;;;35.80;23.83;;;17.80;99.90;;;;;;5098461;28;20131;-57
2021/06/12 04:15:15;;;;;;;29.67;21.05;;;17.80;99.90;;;;;;5098598;28;20105;-56
2021/06/12 04:18:07;;;;;;;28.00;21.33;;;17.80;99.90;;;;;;5083409;28;20040;-56
2021/06/12 04:20:55;;;;;;;28.25;20.70;;;17.80;99.90;;;;;;5083703;28;20052;-56
2021/06/12 04:23:40;;;;;;;30.52;21.15;;;17.80;99.90;;;;;;5083585;28;20075;-56
2021/06/12 04:26:26;;;;;;;29.23;20.58;;;17.80;99.90;;;;;;5083987;28;20052;-56
2021/06/12 04:29:12;;;;;;;26.23;19.52;;;17.90;99.90;;;;;;5097513;28;20044;-56
2021/06/12 04:31:58;;;;;;;28.83;19.90;;;17.90;99.90;;;;;;5097382;28;20047;-57
2021/06/12 04:34:43;;;;;;;27.40;18.65;;;17.90;99.90;;;;;;5097146;28;20055;-56
2021/06/12 04:37:29;;;;;;;28.15;17.65;;;17.90;99.90;;;;;;5097562;28;20397;-56
2021/06/12 04:40:15;;;;;;;24.95;17.08;;;18.00;99.90;;;;;;5097679;28;20044;-56
2021/06/12 04:43:03;;;;;;;23.95;17.08;;;18.00;99.90;;;;;;5097641;28;20145;-56
2021/06/12 04:45:30;;;;;;;17.70;13.70;;;18.00;99.90;;;;;;5098235;28;20047;-56
2021/06/12 04:47:55;;;;;;;19.10;12.98;;;18.00;99.90;;;;;;5098265;28;20359;-56
2021/06/12 04:50:23;;;;;;;28.52;15.50;;;18.00;99.90;;;;;;5098221;28;20071;-56
2021/06/12 04:53:11;;;;;;;22.95;15.35;;;18.00;99.90;;;;;;5083366;28;20134;-55
2021/06/12 04:55:45;;;;;;;20.05;14.45;;;18.00;99.90;;;;;;5097863;28;20116;-56
2021/06/12 04:58:14;;;;;;;26.73;15.88;;;18.00;99.90;;;;;;5098090;28;20044;-55
2021/06/12 05:00:43;;;;;;;25.10;14.70;;;18.00;99.90;;;;;;5094923;28;20043;-56
2021/06/12 05:03:14;;;;;;;22.35;15.13;;;18.00;99.90;;;;;;5095204;28;20036;-56
2021/06/12 05:05:51;;;;;;;23.23;13.88;;;18.00;99.90;;;;;;5094291;28;20040;-56
2021/06/12 05:08:22;;;;;;;21.35;14.10;;;17.90;99.90;;;;;;5094997;28;20048;-56
2021/06/12 05:10:57;;;;;;;21.40;13.65;;;17.90;99.90;;;;;;5094333;28;20044;-56
2021/06/12 05:13:26;;;;;;;22.08;14.35;;;17.90;99.90;;;;;;5094922;28;20063;-56
2021/06/12 05:15:55;;;;;;;18.88;13.15;;;17.90;99.90;;;;;;5094554;28;20055;-56
2021/06/12 05:18:31;;;;;;;23.80;13.48;;;18.00;99.90;;;;;;5094835;28;20044;-56
2021/06/12 05:20:57;;;;;;;24.30;13.63;;;18.00;99.90;;;;;;5094532;28;20375;-56
2021/06/12 05:23:24;;;;;;;21.80;12.65;;;18.00;99.90;;;;;;5094205;28;20040;-57
2021/06/12 05:25:54;;;;;;;25.40;13.73;;;18.00;99.90;;;;;;5093645;28;20091;-56
2021/06/12 05:28:20;;;;;;;25.13;13.95;;;18.00;99.90;;;;;;5084421;28;20085;-56
2021/06/12 05:30:46;;;;;;;21.08;12.38;;;18.10;99.90;;;;;;5083317;28;20049;-56
2021/06/12 05:33:17;;;;;;;13.93;10.18;;;18.00;99.90;;;;;;5085092;28;20818;-56
2021/06/12 05:35:46;;;;;;;19.08;11.80;;;18.10;99.90;;;;;;5082904;28;20390;-56
2021/06/12 05:38:12;;;;;;;20.13;12.70;;;18.00;99.90;;;;;;5082179;28;20087;-56
2021/06/12 05:40:38;;;;;;;20.73;11.45;;;18.10;99.90;;;;;;5084675;28;20047;-56
2021/06/12 05:43:04;;;;;;;21.23;12.13;;;18.10;99.90;;;;;;5103031;28;20150;-56
2021/06/12 05:45:30;;;;;;;18.60;11.70;;;18.10;99.90;;;;;;5101364;28;20560;-56
2021/06/12 05:47:56;;;;;;;19.35;11.38;;;18.10;99.90;;;;;;5110994;28;20534;-56
2021/06/12 05:50:22;;;;;;;23.00;12.82;;;18.10;99.90;;;;;;5111143;28;20050;-56
2021/06/12 05:52:48;;;;;;;14.75;10.38;;;18.10;99.90;;;;;;5111052;28;20040;-56
2021/06/12 05:55:16;;;;;;;18.08;10.23;;;18.20;99.90;;;;;;5104449;28;20055;-55
2021/06/12 05:57:42;;;;;;;16.50;9.75;;;18.20;99.90;;;;;;5099802;28;20427;-56
2021/06/12 06:00:13;;;;;;;21.73;10.57;;;18.20;99.90;;;;;;5102646;28;20040;-56
2021/06/12 06:02:54;;;;;;;12.38;8.68;;;18.20;99.90;;;;;;5092557;28;20131;-56
2021/06/12 06:05:20;;;;;;;11.57;7.60;;;18.20;99.90;;;;;;5095999;28;20541;-56
2021/06/12 06:07:46;;;;;;;13.88;8.98;;;18.20;99.90;;;;;;5096103;28;20052;-57
2021/06/12 06:10:15;;;;;;;18.00;8.48;;;18.30;99.90;;;;;;5095632;28;20040;-56
2021/06/12 06:12:41;;;;;;;10.40;7.78;;;18.30;99.90;;;;;;5100302;28;20036;-56
2021/06/12 06:15:14;;;;;;;8.60;6.85;;;18.20;99.90;;;;;;5098913;28;20047;-56
2021/06/12 06:17:41;;;;;;;9.10;7.10;;;18.30;99.90;;;;;;5103894;28;20039;-56
2021/06/12 06:20:13;;;;;;;9.77;6.45;;;18.30;99.90;;;;;;5102670;28;20158;-56
2021/06/12 06:22:40;;;;;;;8.52;5.80;;;18.30;99.90;;;;;;5098522;28;20493;-56
2021/06/12 06:25:08;;;;;;;8.98;5.22;;;18.30;99.90;;;;;;5103225;28;20390;-56
2021/06/12 06:27:43;;;;;;;12.93;4.72;;;18.20;99.90;;;;;;5100359;28;20047;-56
2021/06/12 06:30:14;;;;;;;9.70;5.15;;;18.20;99.90;;;;;;5101941;28;20036;-57
2021/06/12 06:32:40;;;;;;;11.95;4.97;;;18.30;99.90;;;;;;5098395;28;20390;-56
2021/06/12 06:35:18;;;;;;;8.07;4.40;;;18.30;99.90;;;;;;5101343;28;20090;-56
2021/06/12 06:37:45;;;;;;;9.00;4.78;;;18.30;99.90;;;;;;5096610;28;20067;-56
2021/06/12 06:40:11;;;;;;;9.98;4.55;;;18.40;99.90;;;;;;5112524;28;20048;-56
2021/06/12 06:42:38;;;;;;;8.60;4.35;;;18.40;99.90;;;;;;5111476;28;20039;-56
2021/06/12 06:45:12;;;;;;;9.07;3.45;;;18.40;99.90;;;;;;5112671;28;20130;-56
2021/06/12 06:47:44;;;;;;;8.18;3.78;;;18.30;99.90;;;;;;5113260;28;20050;-56
2021/06/12 06:50:11;;;;;;;4.82;3.03;;;18.50;99.90;;;;;;5113094;28;20040;-55
2021/06/12 06:52:59;;;;;;;8.43;3.58;;;18.50;99.90;;;;;;5112255;28;20050;-56
2021/06/12 06:55:26;;;;;;;14.00;4.20;;;18.60;99.90;;;;;;5112911;28;20049;-56
2021/06/12 06:57:52;;;;;;;11.73;3.70;;;18.60;99.90;;;;;;5113039;28;20048;-56
2021/06/12 07:00:20;;;;;;;14.45;4.38;;;18.70;99.90;;;;;;5112950;28;20104;-56
2021/06/12 07:02:45;;;;;;;7.15;3.08;;;18.80;99.90;;;;;;5112899;28;20046;-56
2021/06/12 07:05:12;;;;;;;7.00;2.67;;;18.80;99.90;;;;;;5112709;28;20043;-56
2021/06/12 07:07:37;;;;;;;9.40;2.92;;;18.80;99.90;;;;;;5112575;28;20044;-56
2021/06/12 07:10:04;;;;;;;8.02;3.10;;;18.80;99.90;;;;;;5112658;28;20492;-56
2021/06/12 07:12:30;;;;;;;8.63;3.28;;;18.90;99.90;;;;;;5112901;28;20075;-56
2021/06/12 07:14:55;;;;;;;9.18;3.22;;;19.00;99.90;;;;;;5112658;28;20086;-56
2021/06/12 07:17:24;;;;;;;7.38;2.90;;;18.90;99.90;;;;;;5112867;28;20534;-57
2021/06/12 07:19:50;;;;;;;9.25;3.10;;;19.10;99.90;;;;;;5112488;28;20499;-56
2021/06/12 07:22:16;;;;;;;9.57;3.60;;;19.20;99.90;;;;;;5112387;28;20047;-56
2021/06/12 07:24:46;;;;;;;8.63;2.70;;;19.40;99.90;;;;;;5112601;28;20242;-56
2021/06/12 07:27:16;;;;;;;6.35;2.63;;;19.50;99.90;;;;;;5112399;28;20104;-55
2021/06/12 07:29:48;;;;;;;9.00;2.72;;;19.50;99.90;;;;;;5112363;28;20123;-56
2021/06/12 07:32:15;;;;;;;8.50;2.45;;;19.50;99.90;;;;;;5112452;28;20134;-56
2021/06/12 07:34:40;;;;;;;7.22;3.00;;;19.70;99.90;;;;;;5112086;28;20119;-56
2021/06/12 07:37:06;;;;;;;9.50;3.00;;;19.80;99.90;;;;;;5112148;28;20477;-56
2021/06/12 07:39:32;;;;;;;13.00;2.80;;;19.80;99.90;;;;;;5112216;28;20087;-56
2021/06/12 07:41:58;;;;;;;6.70;1.83;;;19.80;99.90;;;;;;5112098;28;20039;-56
2021/06/12 07:44:24;;;;;;;8.35;2.38;;;20.00;99.90;;;;;;5112223;28;20048;-55
2021/06/12 07:46:50;;;;;;;6.05;2.42;;;20.00;99.90;;;;;;5112161;28;20044;-56
2021/06/12 07:49:16;;;;;;;8.30;2.70;;;20.10;99.90;;;;;;5112251;28;20050;-56
2021/06/12 07:51:43;;;;;;;10.65;2.92;;;20.20;99.90;;;;;;5112123;28;20043;-56
2021/06/12 07:54:08;;;;;;;4.85;2.05;;;20.40;99.90;;;;;;5112516;28;20100;-56
2021/06/12 07:56:34;;;;;;;11.70;2.47;;;20.50;99.90;;;;;;5112224;28;20040;-57
2021/06/12 07:59:00;;;;;;;5.60;2.08;;;20.50;99.90;;;;;;5112153;28;20366;-56
2021/06/12 08:01:26;;;;;;;5.85;2.05;;;20.50;99.90;;;;;;5111971;28;20069;-56
2021/06/12 08:03:52;;;;;;;12.80;3.03;;;20.40;99.90;;;;;;5112011;28;20396;-56
2021/06/12 08:06:18;;;;;;;4.85;2.05;;;20.20;99.90;;;;;;5110543;28;20135;-56
2021/06/12 08:08:44;;;;;;;7.43;2.80;;;20.10;99.90;;;;;;5111976;28;20110;-55
2021/06/12 08:11:09;;;;;;;7.10;1.60;;;20.10;99.90;;;;;;5111953;28;20050;-56
2021/06/12 08:13:36;;;;;;;7.28;2.00;;;20.20;99.90;;;;;;5112316;28;20155;-56
2021/06/12 08:16:05;;;;;;;3.75;2.30;;;20.30;99.90;;;;;;5112145;28;20047;-56
2021/06/12 08:18:31;;;;;;;12.57;2.35;;;20.60;99.90;;;;;;5111943;28;20085;-56
2021/06/12 08:20:57;;;;;;;8.65;2.03;;;20.70;99.90;;;;;;5111975;28;20085;-56
2021/06/12 08:23:23;;;;;;;9.05;2.35;;;20.60;99.90;;;;;;5112239;28;20117;-56
2021/06/12 08:25:48;;;;;;;5.72;2.13;;;20.80;99.90;;;;;;5111653;28;20044;-56
2021/06/12 08:28:14;;;;;;;10.75;1.80;;;20.70;99.90;;;;;;5111695;28;20537;-56
2021/06/12 08:30:40;;;;;;;5.35;1.52;;;20.80;99.90;;;;;;5111627;28;20065;-56
2021/06/12 08:33:07;;;;;;;4.82;1.40;;;20.70;99.90;;;;;;5111540;28;20397;-55
2021/06/12 08:35:34;;;;;;;8.25;1.90;;;20.70;99.90;;;;;;5114983;28;20047;-56
2021/06/12 08:38:00;;;;;;;13.85;1.77;;;20.70;99.90;;;;;;5115747;28;20110;-56
2021/06/12 08:40:26;;;;;;;6.22;1.85;;;20.70;99.90;;;;;;5115816;28;20040;-56
2021/06/12 08:42:53;;;;;;;5.72;1.52;;;20.70;99.90;;;;;;5115670;28;20044;-56
2021/06/12 08:45:22;;;;;;;3.72;1.17;;;20.60;99.90;;;;;;5115403;28;20043;-56
2021/06/12 08:47:49;;;;;;;3.80;1.48;;;20.60;99.90;;;;;;5115439;28;20074;-55
2021/06/12 08:50:16;;;;;;;5.68;1.48;;;20.60;99.90;;;;;;5115542;28;20143;-55
2021/06/12 08:52:41;;;;;;;2.97;1.25;;;20.60;99.90;;;;;;5115337;28;20110;-56
2021/06/12 08:55:09;;;;;;;4.43;1.50;;;20.40;99.90;;;;;;5115272;28;20131;-56
2021/06/12 08:57:36;;;;;;;4.95;1.73;;;20.60;99.90;;;;;;5115242;28;20043;-55
2021/06/12 09:00:08;;;;;;;8.65;1.80;;;20.80;99.90;;;;;;5115038;28;20043;-55
2021/06/12 09:03:06;;;;;;;5.95;1.20;;;20.70;99.90;;;;;;5115305;28;20044;-56
2021/06/12 09:05:49;;;;;;;4.25;1.08;;;20.90;99.90;;;;;;5115006;28;20481;-56
2021/06/12 09:08:20;;;;;;;5.25;1.73;;;21.10;99.90;;;;;;5114893;28;20044;-56
2021/06/12 09:10:51;;;;;;;4.40;1.30;;;21.40;99.90;;;;;;5115293;28;20062;-56
2021/06/12 09:13:33;;;;;;;2.40;1.30;;;21.70;99.90;;;;;;5115022;28;20131;-56
2021/06/12 09:16:01;;;;;;;9.32;2.70;;;21.70;99.90;;;;;;5114861;28;20047;-56
2021/06/12 09:18:38;;;;;;;2.90;1.40;;;21.80;99.10;;;;;;5114729;28;20136;-56
2021/06/12 09:21:05;;;;;;;3.28;1.33;;;21.80;99.90;;;;;;5114712;28;20036;-56
2021/06/12 09:23:43;;;;;;;4.22;1.67;;;22.10;99.90;;;;;;5114893;28;20039;-56
2021/06/12 09:26:10;;;;;;;3.63;1.80;;;21.80;98.80;;;;;;5114647;28;20095;-56
2021/06/12 09:28:53;;;;;;;4.65;1.75;;;21.70;99.20;;;;;;5114518;28;20834;-56
2021/06/12 09:31:27;;;;;;;4.85;1.30;;;21.70;98.60;;;;;;5114358;28;20043;-56
2021/06/12 09:33:55;;;;;;;6.22;1.60;;;21.90;99.60;;;;;;5114636;28;20067;-56
2021/06/12 09:36:35;;;;;;;11.93;1.65;;;21.80;97.70;;;;;;5114668;28;20122;-56
2021/06/12 09:39:14;;;;;;;6.13;1.80;;;22.10;98.00;;;;;;5114425;28;20058;-56
2021/06/12 09:41:51;;;;;;;3.50;1.10;;;22.20;99.60;;;;;;5096093;28;20541;-56
2021/06/12 09:44:31;;;;;;;2.53;1.23;;;22.00;97.80;;;;;;5114390;28;20054;-56
2021/06/12 09:46:57;;;;;;;3.72;1.23;;;22.30;97.80;;;;;;5113600;28;20048;-56
2021/06/12 09:49:35;;;;;;;3.35;1.40;;;22.00;97.00;;;;;;5109571;28;20048;-56
2021/06/12 09:52:08;;;;;;;3.70;1.40;;;21.90;97.10;;;;;;5103218;28;20063;-56
2021/06/12 09:54:39;;;;;;;5.38;1.27;;;21.80;97.80;;;;;;5103090;28;20043;-56
2021/06/12 09:57:06;;;;;;;4.82;1.40;;;21.70;98.70;;;;;;5103214;28;20124;-56
2021/06/12 09:59:40;;;;;;;6.07;1.50;;;21.60;98.90;;;;;;5096196;28;20046;-56
2021/06/12 10:02:05;;;;;;;4.95;1.67;;;21.70;98.10;;;;;;5113092;28;20046;-56
2021/06/12 10:04:32;;;;;;;7.20;1.67;;;21.60;98.40;;;;;;5113900;28;20480;-56
2021/06/12 10:06:58;;;;;;;4.80;1.67;;;21.40;99.20;;;;;;5113965;28;20038;-55
2021/06/12 10:09:25;;;;;;;4.70;1.83;;;21.10;98.70;;;;;;5114229;28;20059;-56
2021/06/12 10:11:50;;;;;;;8.10;1.90;;;21.10;99.80;;;;;;5114275;28;20043;-56
2021/06/12 10:14:18;;;;;;;9.52;2.70;;;21.10;99.10;;;;;;5113779;28;20039;-56
2021/06/12 10:16:44;;;;;;;7.22;1.92;;;21.00;99.90;;;;;;5114189;28;20498;-55
2021/06/12 10:19:13;;;;;;;7.22;2.10;;;20.80;99.60;;;;;;5095362;28;20047;-56
2021/06/12 10:21:39;;;;;;;7.10;2.05;;;20.70;99.90;;;;;;5113958;28;20047;-56
2021/06/12 10:24:09;;;;;;;9.82;2.47;;;20.80;99.90;;;;;;5114017;28;20115;-55
2021/06/12 10:26:35;;;;;;;10.10;2.13;;;20.60;99.70;;;;;;5114270;28;20039;-56
2021/06/12 10:29:03;;;;;;;7.53;1.98;;;21.10;99.90;;;;;;5114256;28;20039;-57
2021/06/12 10:31:34;;;;;;;7.70;2.75;;;21.40;99.90;;;;;;5113956;28;20100;-56
2021/06/12 10:34:01;;;;;;;10.13;1.90;;;21.80;99.90;;;;;;5113680;28;20419;-57
2021/06/12 10:36:33;;;;;;;10.80;2.30;;;21.80;99.90;;;;;;5113639;28;20485;-56
2021/06/12 10:39:01;;;;;;;8.52;1.73;;;21.50;99.90;;;;;;5113790;28;20425;-56
2021/06/12 10:41:29;;;;;;;7.43;1.85;;;21.30;99.70;;;;;;5107397;28;20067;-56
2021/06/12 10:43:59;;;;;;;7.60;1.95;;;21.40;99.90;;;;;;5102474;28;20055;-56
2021/06/12 10:46:26;;;;;;;9.02;2.03;;;21.50;99.90;;;;;;5100643;28;20044;-56
2021/06/12 10:48:53;;;;;;;10.02;1.88;;;21.30;99.60;;;;;;5104700;28;20451;-56
2021/06/12 10:51:25;;;;;;;9.57;1.90;;;21.40;99.90;;;;;;5102115;28;20048;-55
2021/06/12 10:54:10;;;;;;;12.30;2.53;;;21.40;99.60;;;;;;5101771;28;20105;-56
2021/06/12 10:56:41;;;;;;;12.10;2.28;;;20.90;99.90;;;;;;5101116;28;20043;-57
2021/06/12 10:59:08;;;;;;;7.55;2.45;;;21.10;99.90;;;;;;5102467;28;20046;-56
2021/06/12 11:01:34;;;;;;;7.30;2.35;;;21.10;99.90;;;;;;5091658;28;20068;-56
2021/06/12 11:04:13;;;;;;;7.85;1.70;;;21.20;99.70;;;;;;5091226;28;20067;-56
2021/06/12 11:09:29;;;;;;;8.40;1.85;;;21.00;99.90;;;;;;5092382;28;20032;-56
2021/06/12 11:12:18;;;;;;;;;;;20.70;98.60;;;;;;5080355;28;20101;-56
2021/06/12 11:15:01;;;;;;;2.95;0.98;;;21.00;99.60;;;;;;4987971;28;19941;-56
2021/06/12 11:17:27;;;;;;;3.30;1.23;;;21.10;97.30;;;;;;4971216;28;20141;-57
2021/06/12 11:19:58;;;;;;;8.02;1.50;;;21.30;97.50;;;;;;4971190;28;20130;-56
2021/06/12 11:22:50;;;;;;;6.88;1.25;;;21.30;96.50;;;;;;4971276;28;20576;-56
2021/06/12 11:25:17;;;;;;;5.05;1.40;;;21.20;97.60;;;;;;4971159;28;20047;-56
2021/06/12 11:27:49;;;;;;;10.68;1.30;;;20.90;97.30;;;;;;4971210;28;20496;-56
2021/06/12 11:30:17;;;;;;;4.70;1.15;;;21.10;96.70;;;;;;4971049;28;20042;-56
2021/06/12 11:32:56;;;;;;;3.13;1.20;;;21.00;97.50;;;;;;4971341;28;20678;-56
2021/06/12 11:35:46;;;;;;;5.15;1.40;;;20.80;96.70;;;;;;4971080;28;20113;-56
2021/06/12 11:38:13;;;;;;;;;;;20.90;98.40;;;;;;4971362;28;20186;-56
2021/06/12 11:40:49;;;;;;;5.70;1.45;;;20.90;97.50;;;;;;4971025;28;19918;-57
2021/06/12 11:43:31;;;;;;;2.88;1.15;;;20.80;96.40;;;;;;4971075;28;20121;-55
2021/06/12 11:45:57;;;;;;;3.97;0.90;;;20.70;95.70;;;;;;4970929;28;20126;-57
2021/06/12 11:48:25;;;;;;;5.32;1.38;;;20.60;96.60;;;;;;4971066;28;20500;-56
2021/06/12 11:50:51;;;;;;;5.60;1.02;;;20.60;96.70;;;;;;4981532;28;20054;-56
2021/06/12 11:53:21;;;;;;;6.07;1.38;;;20.40;96.80;;;;;;5067293;28;20151;-56
2021/06/12 11:55:47;;;;;;;2.65;1.20;;;20.50;97.90;;;;;;5071643;28;20083;-56
2021/06/12 11:58:14;;;;;;;4.32;1.20;;;20.50;97.90;;;;;;5071740;28;20044;-56
2021/06/12 12:00:47;;;;;;;6.45;1.45;;;20.50;97.80;;;;;;5071602;28;20044;-56
2021/06/12 12:03:17;;;;;;;2.95;1.15;;;20.50;98.40;;;;;;5081246;28;20537;-56
2021/06/12 12:05:48;;;;;;;4.45;1.73;;;20.60;99.30;;;;;;5079406;28;20040;-60
2021/06/12 12:08:16;;;;;;;9.20;1.63;;;20.90;99.00;;;;;;5070925;28;20045;-60
2021/06/12 12:10:53;;;;;;;6.43;1.70;;;21.20;98.60;;;;;;5073707;28;20540;-60
2021/06/12 12:13:35;;;;;;;3.70;1.20;;;21.20;98.90;;;;;;5075511;28;20521;-60
2021/06/12 12:16:02;;;;;;;5.40;1.98;;;21.00;97.20;;;;;;5088448;28;20152;-59
2021/06/12 12:18:28;;;;;;;5.40;1.50;;;20.80;97.50;;;;;;5095679;28;20181;-59
2021/06/12 12:20:57;;;;;;;5.90;1.60;;;20.80;97.80;;;;;;5095709;28;20044;-60
2021/06/12 12:23:26;;;;;;;3.55;1.15;;;20.90;98.30;;;;;;5095555;28;20062;-59
2021/06/12 12:26:07;;;;;;;10.93;2.30;;;21.00;99.60;;;;;;5095342;28;20071;-59
2021/06/12 12:28:50;;;;;;;6.72;2.20;;;21.30;98.80;;;;;;5095035;28;20043;-58
2021/06/12 12:31:16;;;;;;;11.82;1.90;;;21.00;98.80;;;;;;5094569;28;20101;-60
2021/06/12 12:33:48;;;;;;;7.05;1.75;;;21.10;99.40;;;;;;5095060;28;20490;-60
2021/06/12 12:36:15;;;;;;;7.22;1.40;;;20.90;98.60;;;;;;5095082;28;20036;-60
2021/06/12 12:38:42;;;;;;;5.90;1.50;;;20.90;98.00;;;;;;5094347;28;20032;-60
2021/06/12 12:41:10;;;;;;;7.82;1.50;;;20.80;97.20;;;;;;5094522;28;20063;-61
2021/06/12 12:43:36;;;;;;;5.00;1.87;;;20.60;97.20;;;;;;5076836;28;20494;-61
2021/06/12 12:46:04;;;;;;;3.65;1.48;;;20.40;97.10;;;;;;5094854;28;20309;-61
2021/06/12 12:48:32;;;;;;;7.50;1.60;;;20.10;97.30;;;;;;5094486;28;20063;-60
2021/06/12 12:50:59;;;;;;;9.60;1.77;;;20.00;97.90;;;;;;5094350;28;20089;-60
2021/06/12 12:53:26;;;;;;;7.97;1.88;;;19.80;98.70;;;;;;5094442;28;20048;-60
2021/06/12 12:56:00;;;;;;;5.13;1.50;;;19.80;99.90;;;;;;5095119;28;20067;-60
2021/06/12 12:58:28;;;;;;;7.35;1.85;;;19.80;99.60;;;;;;5095204;28;20131;-59
2021/06/12 13:01:13;;;;;;;4.97;1.67;;;19.60;99.10;;;;;;5094946;28;20043;-61
2021/06/12 13:03:47;;;;;;;8.75;2.20;;;19.50;99.70;;;;;;5094822;28;20068;-59
2021/06/12 13:06:35;;;;;;;4.97;1.95;;;19.50;99.90;;;;;;5094971;28;20097;-60
2021/06/12 13:09:16;;;;;;;16.42;3.05;;;19.30;99.90;;;;;;5094950;28;20047;-59
2021/06/12 13:11:55;;;;;;;11.02;2.28;;;19.30;99.90;;;;;;5094546;28;20046;-59
2021/06/12 13:14:28;;;;;;;10.50;2.97;;;19.40;99.90;;;;;;5094269;28;20039;-60
2021/06/12 13:16:57;;;;;;;8.73;2.10;;;19.50;99.90;;;;;;5093216;28;20072;-59
2021/06/12 13:19:33;;;;;;;13.32;2.33;;;19.70;99.90;;;;;;5093304;28;20036;-61